createdAt,value
2016-12-02T00:00:58.165Z,0
2016-12-02T00:01:58.319Z,0
2016-12-02T00:02:58.523Z,0
2016-12-02T00:03:58.347Z,0
2016-12-02T00:04:58.531Z,0
2016-12-02T00:05:58.368Z,0
2016-12-02T00:06:58.332Z,0
2016-12-02T00:07:58.262Z,0
2016-12-02T00:08:58.561Z,0
2016-12-02T00:09:58.218Z,0
2016-12-02T00:10:58.281Z,0
2016-12-02T00:11:58.323Z,0
2016-12-02T00:12:58.308Z,0
2016-12-02T00:13:58.373Z,0
2016-12-02T00:14:58.156Z,0
2016-12-02T00:15:58.301Z,0
2016-12-02T00:16:58.241Z,0
2016-12-02T00:17:58.845Z,0
2016-12-02T00:18:58.404Z,0
2016-12-02T00:19:58.346Z,0
2016-12-02T00:20:58.158Z,0
2016-12-02T00:21:58.156Z,0
2016-12-02T00:22:58.115Z,0
2016-12-02T00:23:59.032Z,0
2016-12-02T00:24:58.071Z,0
2016-12-02T00:25:58.236Z,0
2016-12-02T00:26:58.158Z,0
2016-12-02T00:27:58.124Z,0
2016-12-02T00:28:58.289Z,0
2016-12-02T00:29:58.197Z,0
2016-12-02T00:30:58.168Z,0
2016-12-02T00:31:58.114Z,0
2016-12-02T00:32:58.169Z,0
2016-12-02T00:33:58.199Z,0
2016-12-02T00:34:58.337Z,0
2016-12-02T00:35:58.202Z,0
2016-12-02T00:36:58.169Z,0
2016-12-02T00:37:58.254Z,0
2016-12-02T00:38:58.381Z,0
2016-12-02T00:39:58.356Z,0
2016-12-02T00:40:59.050Z,0
2016-12-02T00:41:58.118Z,0
2016-12-02T00:42:58.285Z,0
2016-12-02T00:43:58.115Z,0
2016-12-02T00:44:58.338Z,0
2016-12-02T00:45:58.247Z,0
2016-12-02T00:46:58.265Z,0
2016-12-02T00:47:58.236Z,0
2016-12-02T00:48:58.313Z,0
2016-12-02T00:49:58.255Z,0
2016-12-02T00:50:58.318Z,0
2016-12-02T00:51:58.142Z,0
2016-12-02T00:52:58.104Z,0
2016-12-02T00:53:58.241Z,0
2016-12-02T00:54:59.278Z,0
2016-12-02T00:55:58.294Z,0
2016-12-02T00:56:58.095Z,0
2016-12-02T00:57:58.266Z,0
2016-12-02T00:58:58.216Z,0
2016-12-02T00:59:58.405Z,0
2016-12-02T01:00:58.142Z,0
2016-12-02T01:01:58.265Z,0
2016-12-02T01:02:58.268Z,0
2016-12-02T01:03:58.138Z,0
2016-12-02T01:04:58.250Z,0
2016-12-02T01:05:58.201Z,0
2016-12-02T01:06:58.105Z,0
2016-12-02T01:07:58.281Z,0
2016-12-02T01:08:58.256Z,0
2016-12-02T01:09:58.297Z,0
2016-12-02T01:10:58.136Z,0
2016-12-02T01:11:58.297Z,0
2016-12-02T01:12:58.125Z,0
2016-12-02T01:13:58.302Z,0
2016-12-02T01:14:58.911Z,0
2016-12-02T01:15:58.275Z,0
2016-12-02T01:16:58.396Z,0
2016-12-02T01:17:58.157Z,0
2016-12-02T01:18:58.112Z,0
2016-12-02T01:19:58.173Z,0
2016-12-02T01:20:58.161Z,0
2016-12-02T01:21:58.176Z,0
2016-12-02T01:22:58.155Z,0
2016-12-02T01:23:58.215Z,0
2016-12-02T01:25:00.235Z,0
2016-12-02T01:25:58.253Z,0
2016-12-02T01:26:58.340Z,0
2016-12-02T01:27:58.205Z,0
2016-12-02T01:28:58.236Z,0
2016-12-02T01:29:58.197Z,0
2016-12-02T01:30:58.255Z,0
2016-12-02T01:31:58.346Z,0
2016-12-02T01:32:58.186Z,0
2016-12-02T01:33:58.140Z,0
2016-12-02T01:34:58.167Z,0
2016-12-02T01:35:58.278Z,0
2016-12-02T01:36:58.364Z,0
2016-12-02T01:37:58.173Z,0
2016-12-02T01:38:58.353Z,0
2016-12-02T01:39:58.211Z,0
2016-12-02T01:40:58.283Z,0
2016-12-02T01:41:58.304Z,0
2016-12-02T01:42:58.436Z,0
2016-12-02T01:43:58.268Z,0
2016-12-02T01:44:58.154Z,0
2016-12-02T01:45:58.295Z,0
2016-12-02T01:46:58.279Z,0
2016-12-02T01:47:58.158Z,0
2016-12-02T01:48:58.137Z,0
2016-12-02T01:49:58.367Z,0
2016-12-02T01:50:58.235Z,0
2016-12-02T01:51:58.274Z,0
2016-12-02T01:52:58.132Z,0
2016-12-02T01:53:58.235Z,0
2016-12-02T01:54:58.403Z,0
2016-12-02T01:55:58.407Z,0
2016-12-02T01:56:58.498Z,0
2016-12-02T01:57:58.404Z,0
2016-12-02T01:58:58.289Z,0
2016-12-02T01:59:58.198Z,0
2016-12-02T02:00:58.237Z,0
2016-12-02T02:01:58.206Z,0
2016-12-02T02:02:58.408Z,0
2016-12-02T02:03:58.303Z,0
2016-12-02T02:04:58.174Z,0
2016-12-02T02:06:01.022Z,0
2016-12-02T02:06:58.195Z,0
2016-12-02T02:07:58.331Z,0
2016-12-02T02:08:58.290Z,0
2016-12-02T02:09:58.293Z,0
2016-12-02T02:10:58.314Z,0
2016-12-02T02:11:58.357Z,0
2016-12-02T02:12:58.236Z,0
2016-12-02T02:13:59.802Z,0
2016-12-02T02:14:58.286Z,0
2016-12-02T02:15:58.396Z,0
2016-12-02T02:16:58.281Z,0
2016-12-02T02:17:58.253Z,0
2016-12-02T02:18:58.343Z,0
2016-12-02T02:19:58.197Z,0
2016-12-02T02:20:58.356Z,0
2016-12-02T02:21:58.261Z,0
2016-12-02T02:22:58.456Z,0
2016-12-02T02:23:58.284Z,0
2016-12-02T02:24:58.225Z,0
2016-12-02T02:25:58.337Z,0
2016-12-02T02:26:58.237Z,0
2016-12-02T02:27:58.281Z,0
2016-12-02T02:28:58.252Z,0
2016-12-02T02:29:58.837Z,0
2016-12-02T02:30:58.217Z,0
2016-12-02T02:31:58.297Z,0
2016-12-02T02:32:58.255Z,0
2016-12-02T02:33:58.212Z,0
2016-12-02T02:34:58.306Z,0
2016-12-02T02:35:58.265Z,0
2016-12-02T02:36:58.386Z,0
2016-12-02T02:37:59.055Z,0
2016-12-02T02:38:58.201Z,0
2016-12-02T02:39:58.322Z,0
2016-12-02T02:40:58.387Z,0
2016-12-02T02:41:58.207Z,0
2016-12-02T02:42:58.415Z,0
2016-12-02T02:43:58.305Z,0
2016-12-02T02:44:58.336Z,0
2016-12-02T02:45:58.949Z,0
2016-12-02T02:46:58.406Z,0
2016-12-02T02:47:58.388Z,0
2016-12-02T02:48:58.691Z,0
2016-12-02T02:49:58.582Z,0
2016-12-02T02:50:58.516Z,0
2016-12-02T02:51:58.639Z,0
2016-12-02T02:52:58.608Z,0
2016-12-02T02:53:58.916Z,0
2016-12-02T02:54:58.495Z,0
2016-12-02T02:55:58.591Z,0
2016-12-02T02:56:58.759Z,0
2016-12-02T02:57:58.561Z,0
2016-12-02T02:58:58.672Z,0
2016-12-02T02:59:58.493Z,0
2016-12-02T03:00:58.767Z,0
2016-12-02T03:01:58.804Z,0
2016-12-02T03:02:58.753Z,0
2016-12-02T03:03:58.863Z,0
2016-12-02T03:04:59.232Z,0
2016-12-02T03:05:58.494Z,0
2016-12-02T03:06:58.880Z,0
2016-12-02T03:07:58.523Z,0
2016-12-02T03:08:58.704Z,0
2016-12-02T03:09:58.578Z,0
2016-12-02T03:10:58.638Z,0
2016-12-02T03:11:58.639Z,0
2016-12-02T03:12:58.736Z,0
2016-12-02T03:13:58.672Z,0
2016-12-02T03:14:58.649Z,0
2016-12-02T03:15:58.456Z,0
2016-12-02T03:16:58.581Z,0
2016-12-02T03:17:58.555Z,0
2016-12-02T03:18:58.479Z,0
2016-12-02T03:19:58.693Z,0
2016-12-02T03:20:58.746Z,0
2016-12-02T03:21:58.483Z,0
2016-12-02T03:22:58.503Z,0
2016-12-02T03:23:58.623Z,0
2016-12-02T03:24:58.735Z,0
2016-12-02T03:25:58.422Z,0
2016-12-02T03:26:58.488Z,0
2016-12-02T03:27:59.212Z,0
2016-12-02T03:28:58.630Z,0
2016-12-02T03:29:58.585Z,0
2016-12-02T03:30:58.629Z,0
2016-12-02T03:31:58.600Z,0
2016-12-02T03:32:58.664Z,0
2016-12-02T03:33:58.592Z,0
2016-12-02T03:34:58.653Z,0
2016-12-02T03:35:58.484Z,0
2016-12-02T03:36:58.626Z,0
2016-12-02T03:37:58.655Z,0
2016-12-02T03:38:58.651Z,0
2016-12-02T03:39:58.619Z,0
2016-12-02T03:40:58.705Z,0
2016-12-02T03:41:58.632Z,0
2016-12-02T03:47:16.282Z,0
2016-12-02T03:47:27.682Z,0
2016-12-02T03:48:27.578Z,0
2016-12-02T03:49:27.743Z,0
2016-12-02T03:50:27.705Z,0
2016-12-02T03:51:28.881Z,0
2016-12-02T03:52:27.861Z,0
2016-12-02T03:53:27.612Z,0
2016-12-02T03:54:27.693Z,0
2016-12-02T03:55:27.756Z,0
2016-12-02T03:56:27.907Z,0
2016-12-02T03:57:27.878Z,0
2016-12-02T03:58:27.620Z,0
2016-12-02T03:59:27.676Z,0
2016-12-02T04:00:27.722Z,0
2016-12-02T04:01:27.702Z,0
2016-12-02T04:02:27.703Z,0
2016-12-02T04:03:27.692Z,0
2016-12-02T04:04:27.682Z,0
2016-12-02T04:05:27.781Z,0
2016-12-02T04:06:27.748Z,0
2016-12-02T04:07:27.710Z,0
2016-12-02T04:08:27.763Z,0
2016-12-02T04:09:27.722Z,0
2016-12-02T04:10:27.661Z,0
2016-12-02T04:11:27.676Z,0
2016-12-02T04:12:27.742Z,0
2016-12-02T04:13:27.745Z,0
2016-12-02T04:14:27.890Z,0
2016-12-02T04:15:27.775Z,0
2016-12-02T04:16:27.710Z,0
2016-12-02T04:17:27.860Z,0
2016-12-02T04:18:27.907Z,0
2016-12-02T04:19:27.852Z,0
2016-12-02T04:20:28.507Z,0
2016-12-02T04:21:27.705Z,0
2016-12-02T04:22:27.850Z,0
2016-12-02T04:23:27.826Z,0
2016-12-02T04:24:27.832Z,0
2016-12-02T04:25:27.826Z,0
2016-12-02T04:26:27.699Z,0
2016-12-02T04:27:27.879Z,0
2016-12-02T04:28:27.852Z,0
2016-12-02T04:29:27.804Z,0
2016-12-02T04:30:37.650Z,0
2016-12-02T04:31:27.913Z,0
2016-12-02T04:32:27.735Z,0
2016-12-02T04:33:27.840Z,0
2016-12-02T04:34:27.669Z,0
2016-12-02T04:35:27.859Z,0
2016-12-02T04:36:27.841Z,0
2016-12-02T04:37:27.751Z,0
2016-12-02T04:38:27.702Z,0
2016-12-02T04:39:27.811Z,0
2016-12-02T04:40:27.942Z,0
2016-12-02T04:41:27.894Z,0
2016-12-02T04:42:27.765Z,0
2016-12-02T04:43:27.683Z,0
2016-12-02T04:44:27.716Z,0
2016-12-02T04:45:27.811Z,0
2016-12-02T04:46:27.700Z,0
2016-12-02T04:47:27.981Z,0
2016-12-02T04:48:27.779Z,0
2016-12-02T04:49:27.770Z,0
2016-12-02T04:50:27.661Z,0
2016-12-02T04:51:27.881Z,0
2016-12-02T04:52:27.720Z,0
2016-12-02T04:53:27.909Z,0
2016-12-02T04:54:27.752Z,0
2016-12-02T04:55:27.755Z,0
2016-12-02T04:56:27.882Z,0
2016-12-02T04:57:27.734Z,0
2016-12-02T04:58:27.808Z,0
2016-12-02T04:59:27.842Z,0
2016-12-02T05:00:28.529Z,0
2016-12-02T05:01:27.787Z,0
2016-12-02T05:02:27.821Z,0
2016-12-02T05:03:27.849Z,0
2016-12-02T05:04:27.911Z,0
2016-12-02T05:05:27.880Z,0
2016-12-02T05:06:27.645Z,0
2016-12-02T05:07:27.846Z,0
2016-12-02T05:08:27.810Z,0
2016-12-02T05:09:27.669Z,0
2016-12-02T05:10:27.739Z,0
2016-12-02T05:11:28.790Z,0
2016-12-02T05:12:27.704Z,0
2016-12-02T05:13:27.921Z,0
2016-12-02T05:14:27.905Z,0
2016-12-02T05:15:27.861Z,0
2016-12-02T05:16:27.716Z,0
2016-12-02T05:17:27.761Z,0
2016-12-02T05:18:27.771Z,0
2016-12-02T05:19:27.869Z,0
2016-12-02T05:20:27.955Z,0
2016-12-02T05:21:27.806Z,0
2016-12-02T05:22:27.827Z,0
2016-12-02T05:23:27.806Z,0
2016-12-02T05:24:27.791Z,0
2016-12-02T05:25:27.837Z,0
2016-12-02T05:26:27.802Z,0
2016-12-02T05:27:27.931Z,0
2016-12-02T05:28:27.784Z,0
2016-12-02T05:29:27.867Z,0
2016-12-02T05:30:27.749Z,0
2016-12-02T05:31:27.900Z,0
2016-12-02T05:32:27.972Z,0
2016-12-02T05:33:27.832Z,0
2016-12-02T05:34:28.637Z,0
2016-12-02T05:35:27.811Z,0
2016-12-02T05:36:27.994Z,0
2016-12-02T05:37:27.845Z,0
2016-12-02T05:38:27.935Z,0
2016-12-02T05:39:27.860Z,0
2016-12-02T05:40:27.921Z,0
2016-12-02T05:41:27.821Z,0
2016-12-02T05:46:46.351Z,0
2016-12-02T05:46:57.826Z,0
2016-12-02T05:47:57.760Z,0
2016-12-02T05:48:57.785Z,0
2016-12-02T05:49:57.755Z,0
2016-12-02T05:50:57.700Z,0
2016-12-02T05:51:57.829Z,0
2016-12-02T05:52:57.830Z,0
2016-12-02T05:53:57.871Z,0
2016-12-02T05:54:57.708Z,0
2016-12-02T05:55:57.965Z,0
2016-12-02T05:56:57.847Z,0
2016-12-02T05:57:57.961Z,0
2016-12-02T05:58:57.926Z,0
2016-12-02T05:59:57.769Z,0
2016-12-02T06:00:57.848Z,0
2016-12-02T06:01:57.837Z,0
2016-12-02T06:02:57.818Z,0
2016-12-02T06:03:57.714Z,0
2016-12-02T06:04:57.911Z,0
2016-12-02T06:05:57.819Z,0
2016-12-02T06:06:57.992Z,0
2016-12-02T06:07:57.851Z,0
2016-12-02T06:08:57.828Z,0
2016-12-02T06:09:57.922Z,0
2016-12-02T06:10:57.951Z,0
2016-12-02T06:11:57.759Z,0
2016-12-02T06:12:57.999Z,0
2016-12-02T06:13:57.805Z,0
2016-12-02T06:14:57.760Z,0
2016-12-02T06:15:57.800Z,0
2016-12-02T06:16:57.963Z,0
2016-12-02T06:17:57.842Z,0
2016-12-02T06:18:58.236Z,0
2016-12-02T06:19:57.809Z,0
2016-12-02T06:20:57.960Z,0
2016-12-02T06:21:57.841Z,0
2016-12-02T06:22:58.092Z,0
2016-12-02T06:23:57.719Z,0
2016-12-02T06:24:58.007Z,0
2016-12-02T06:25:57.686Z,0
2016-12-02T06:26:57.942Z,0
2016-12-02T06:27:57.841Z,0
2016-12-02T06:28:57.863Z,0
2016-12-02T06:29:57.869Z,0
2016-12-02T06:30:57.811Z,0
2016-12-02T06:31:57.841Z,0
2016-12-02T06:32:57.968Z,0
2016-12-02T06:33:57.842Z,0
2016-12-02T06:34:58.009Z,0
2016-12-02T06:35:58.002Z,0
2016-12-02T06:36:58.223Z,0
2016-12-02T06:37:58.104Z,0
2016-12-02T06:38:57.908Z,0
2016-12-02T06:39:58.013Z,0
2016-12-02T06:40:57.792Z,0
2016-12-02T06:41:58.059Z,0
2016-12-02T06:42:57.800Z,0
2016-12-02T06:43:57.990Z,0
2016-12-02T06:44:57.790Z,0
2016-12-02T06:45:57.864Z,0
2016-12-02T06:46:57.779Z,0
2016-12-02T06:47:57.907Z,0
2016-12-02T06:48:58.021Z,0
2016-12-02T06:49:58.007Z,0
2016-12-02T06:50:57.948Z,0
2016-12-02T06:51:57.878Z,0
2016-12-02T06:52:57.786Z,0
2016-12-02T06:53:58.377Z,0
2016-12-02T06:54:58.121Z,0
2016-12-02T06:55:58.046Z,0
2016-12-02T06:56:57.757Z,0
2016-12-02T06:57:57.949Z,0
2016-12-02T06:58:58.096Z,0
2016-12-02T06:59:57.937Z,0
2016-12-02T07:00:58.051Z,0
2016-12-02T07:01:58.009Z,0
2016-12-02T07:02:58.102Z,0
2016-12-02T07:03:57.832Z,0
2016-12-02T07:04:57.891Z,0
2016-12-02T07:05:58.002Z,0
2016-12-02T07:06:58.127Z,0
2016-12-02T07:07:58.031Z,0
2016-12-02T07:08:57.899Z,0
2016-12-02T07:09:57.930Z,0
2016-12-02T07:10:58.008Z,0
2016-12-02T07:11:57.952Z,0
2016-12-02T07:12:57.887Z,0
2016-12-02T07:13:57.874Z,0
2016-12-02T07:14:57.786Z,0
2016-12-02T07:15:57.953Z,0
2016-12-02T07:16:57.824Z,5
2016-12-02T07:17:57.929Z,5
2016-12-02T07:18:57.902Z,5
2016-12-02T07:19:57.997Z,5
2016-12-02T07:20:58.931Z,5
2016-12-02T07:21:57.961Z,5
2016-12-02T07:22:58.099Z,5
2016-12-02T07:23:57.994Z,5
2016-12-02T07:24:58.621Z,5
2016-12-02T07:25:57.764Z,10
2016-12-02T07:26:58.079Z,5
2016-12-02T07:27:57.986Z,10
2016-12-02T07:28:58.146Z,10
2016-12-02T07:29:57.959Z,10
2016-12-02T07:30:58.118Z,10
2016-12-02T07:31:57.912Z,10
2016-12-02T07:32:58.031Z,10
2016-12-02T07:33:57.856Z,10
2016-12-02T07:34:57.979Z,15
2016-12-02T07:35:57.934Z,15
2016-12-02T07:36:58.030Z,15
2016-12-02T07:37:58.051Z,15
2016-12-02T07:38:58.002Z,20
2016-12-02T07:39:58.119Z,20
2016-12-02T07:40:57.992Z,25
2016-12-02T07:41:57.958Z,25
2016-12-02T07:42:57.934Z,25
2016-12-02T07:43:57.844Z,25
2016-12-02T07:44:57.962Z,25
2016-12-02T07:45:57.902Z,30
2016-12-02T07:46:57.993Z,30
2016-12-02T07:47:57.871Z,25
2016-12-02T07:48:57.980Z,25
2016-12-02T07:49:58.471Z,20
2016-12-02T07:50:57.941Z,25
2016-12-02T07:51:58.024Z,30
2016-12-02T07:52:57.913Z,30
2016-12-02T07:53:57.837Z,35
2016-12-02T07:54:57.782Z,30
2016-12-02T07:55:58.064Z,25
2016-12-02T07:56:57.801Z,25
2016-12-02T07:57:58.004Z,25
2016-12-02T07:58:58.013Z,30
2016-12-02T07:59:57.925Z,25
2016-12-02T08:00:57.883Z,30
2016-12-02T08:01:57.899Z,35
2016-12-02T08:02:57.964Z,30
2016-12-02T08:03:57.830Z,35
2016-12-02T08:04:57.870Z,30
2016-12-02T08:05:57.951Z,30
2016-12-02T08:06:57.840Z,35
2016-12-02T08:07:58.109Z,40
2016-12-02T08:08:57.969Z,40
2016-12-02T08:09:57.900Z,45
2016-12-02T08:10:58.724Z,50
2016-12-02T08:11:58.436Z,55
2016-12-02T08:12:57.946Z,65
2016-12-02T08:13:58.351Z,65
2016-12-02T08:14:58.293Z,60
2016-12-02T08:15:58.183Z,60
2016-12-02T08:16:57.927Z,65
2016-12-02T08:17:58.285Z,65
2016-12-02T08:18:58.264Z,60
2016-12-02T08:19:58.579Z,70
2016-12-02T08:20:58.796Z,75
2016-12-02T08:21:58.299Z,75
2016-12-02T08:22:58.180Z,70
2016-12-02T08:23:59.126Z,60
2016-12-02T08:24:58.129Z,50
2016-12-02T08:25:58.190Z,55
2016-12-02T08:26:58.398Z,50
2016-12-02T08:27:58.173Z,55
2016-12-02T08:28:57.930Z,55
2016-12-02T08:29:58.203Z,70
2016-12-02T08:30:58.101Z,95
2016-12-02T08:31:58.329Z,105
2016-12-02T08:32:57.902Z,100
2016-12-02T08:33:58.019Z,105
2016-12-02T08:34:57.957Z,100
2016-12-02T08:35:58.061Z,90
2016-12-02T08:36:57.787Z,90
2016-12-02T08:37:58.624Z,95
2016-12-02T08:38:58.061Z,120
2016-12-02T08:39:57.995Z,120
2016-12-02T08:40:58.143Z,130
2016-12-02T08:41:57.986Z,110
2016-12-02T08:42:58.047Z,90
2016-12-02T08:43:58.009Z,80
2016-12-02T08:44:58.078Z,80
2016-12-02T08:45:58.148Z,85
2016-12-02T08:46:58.122Z,85
2016-12-02T08:47:58.047Z,80
2016-12-02T08:48:57.779Z,80
2016-12-02T08:49:58.157Z,80
2016-12-02T08:50:58.043Z,95
2016-12-02T08:51:57.946Z,110
2016-12-02T08:52:57.879Z,100
2016-12-02T08:53:57.845Z,100
2016-12-02T08:54:57.968Z,85
2016-12-02T08:55:57.881Z,95
2016-12-02T08:56:58.681Z,110
2016-12-02T08:57:58.123Z,95
2016-12-02T08:58:58.045Z,105
2016-12-02T08:59:58.019Z,125
2016-12-02T09:00:57.955Z,165
2016-12-02T09:01:58.026Z,210
2016-12-02T09:02:58.066Z,215
2016-12-02T09:03:58.147Z,200
2016-12-02T09:04:57.938Z,145
2016-12-02T09:05:57.962Z,95
2016-12-02T09:06:58.181Z,85
2016-12-02T09:07:58.094Z,100
2016-12-02T09:08:58.164Z,105
2016-12-02T09:09:58.163Z,100
2016-12-02T09:10:58.112Z,90
2016-12-02T09:11:58.043Z,85
2016-12-02T09:12:58.363Z,100
2016-12-02T09:13:58.077Z,90
2016-12-02T09:14:58.206Z,100
2016-12-02T09:15:58.128Z,105
2016-12-02T09:16:59.679Z,115
2016-12-02T09:17:58.242Z,85
2016-12-02T09:18:58.350Z,75
2016-12-02T09:19:58.335Z,80
2016-12-02T09:20:58.229Z,80
2016-12-02T09:21:58.198Z,80
2016-12-02T09:22:58.159Z,85
2016-12-02T09:23:57.893Z,110
2016-12-02T09:24:58.765Z,105
2016-12-02T09:25:58.024Z,115
2016-12-02T09:26:58.062Z,125
2016-12-02T09:27:58.271Z,115
2016-12-02T09:28:58.071Z,115
2016-12-02T09:29:58.049Z,105
2016-12-02T09:30:58.211Z,95
2016-12-02T09:31:58.272Z,80
2016-12-02T09:32:58.281Z,70
2016-12-02T09:33:58.135Z,90
2016-12-02T09:34:58.036Z,95
2016-12-02T09:35:58.115Z,95
2016-12-02T09:36:58.389Z,95
2016-12-02T09:37:58.135Z,85
2016-12-02T09:38:58.068Z,85
2016-12-02T09:39:58.087Z,65
2016-12-02T09:40:58.262Z,80
2016-12-02T09:41:58.166Z,85
2016-12-02T09:42:58.107Z,100
2016-12-02T09:48:15.350Z,135
2016-12-02T09:48:26.943Z,125
2016-12-02T09:49:26.899Z,115
2016-12-02T09:50:27.126Z,115
2016-12-02T09:51:26.800Z,115
2016-12-02T09:52:26.831Z,105
2016-12-02T09:53:26.963Z,125
2016-12-02T09:54:26.920Z,130
2016-12-02T09:55:27.207Z,145
2016-12-02T09:56:27.482Z,140
2016-12-02T09:57:27.150Z,130
2016-12-02T09:58:27.020Z,125
2016-12-02T09:59:26.970Z,105
2016-12-02T10:00:27.248Z,105
2016-12-02T10:01:27.098Z,80
2016-12-02T10:02:27.508Z,85
2016-12-02T10:03:27.362Z,95
2016-12-02T10:04:27.047Z,100
2016-12-02T10:05:27.084Z,120
2016-12-02T10:06:27.067Z,95
2016-12-02T10:07:26.899Z,110
2016-12-02T10:08:27.188Z,135
2016-12-02T10:09:27.038Z,160
2016-12-02T10:10:26.963Z,195
2016-12-02T10:11:26.916Z,210
2016-12-02T10:12:26.893Z,185
2016-12-02T10:13:27.216Z,170
2016-12-02T10:14:27.046Z,190
2016-12-02T10:15:27.058Z,170
2016-12-02T10:16:27.564Z,145
2016-12-02T10:17:26.981Z,150
2016-12-02T10:18:26.900Z,160
2016-12-02T10:19:26.988Z,165
2016-12-02T10:20:26.887Z,130
2016-12-02T10:21:26.857Z,105
2016-12-02T10:22:26.929Z,120
2016-12-02T10:23:27.001Z,115
2016-12-02T10:24:26.895Z,135
2016-12-02T10:25:26.720Z,150
2016-12-02T10:26:26.906Z,185
2016-12-02T10:27:27.041Z,170
2016-12-02T10:28:27.067Z,170
2016-12-02T10:29:26.897Z,190
2016-12-02T10:30:27.021Z,200
2016-12-02T10:31:27.032Z,220
2016-12-02T10:32:26.926Z,225
2016-12-02T10:33:26.945Z,250
2016-12-02T10:34:27.014Z,280
2016-12-02T10:35:27.052Z,235
2016-12-02T10:36:26.918Z,190
2016-12-02T10:37:27.256Z,195
2016-12-02T10:38:27.247Z,235
2016-12-02T10:39:26.983Z,270
2016-12-02T10:40:27.015Z,215
2016-12-02T10:41:28.292Z,235
2016-12-02T10:42:27.050Z,220
2016-12-02T10:43:28.146Z,285
2016-12-02T10:44:28.974Z,325
2016-12-02T10:45:28.582Z,335
2016-12-02T10:46:28.746Z,320
2016-12-02T10:47:28.213Z,260
2016-12-02T10:48:28.628Z,250
2016-12-02T10:49:28.378Z,300
2016-12-02T10:50:28.165Z,290
2016-12-02T10:51:28.562Z,210
2016-12-02T10:52:29.093Z,195
2016-12-02T10:53:28.383Z,215
2016-12-02T10:54:28.479Z,215
2016-12-02T10:55:28.444Z,180
2016-12-02T10:56:26.978Z,140
2016-12-02T10:57:26.821Z,120
2016-12-02T10:58:26.987Z,85
2016-12-02T10:59:26.831Z,95
2016-12-02T11:00:27.021Z,90
2016-12-02T11:01:26.978Z,95
2016-12-02T11:02:26.992Z,80
2016-12-02T11:03:27.093Z,80
2016-12-02T11:04:26.915Z,80
2016-12-02T11:05:26.990Z,95
2016-12-02T11:06:26.970Z,110
2016-12-02T11:07:26.908Z,85
2016-12-02T11:08:27.277Z,70
2016-12-02T11:09:27.185Z,55
2016-12-02T11:10:27.070Z,45
2016-12-02T11:11:26.926Z,40
2016-12-02T11:12:27.263Z,55
2016-12-02T11:13:27.455Z,80
2016-12-02T11:14:27.346Z,100
2016-12-02T11:15:27.123Z,135
2016-12-02T11:16:27.452Z,160
2016-12-02T11:17:27.085Z,175
2016-12-02T11:18:27.192Z,200
2016-12-02T11:19:26.903Z,245
2016-12-02T11:20:27.223Z,250
2016-12-02T11:21:27.168Z,255
2016-12-02T11:22:27.050Z,255
2016-12-02T11:23:27.916Z,280
2016-12-02T11:24:27.074Z,290
2016-12-02T11:25:27.179Z,300
2016-12-02T11:26:27.213Z,325
2016-12-02T11:27:27.023Z,300
2016-12-02T11:28:27.050Z,255
2016-12-02T11:29:27.170Z,235
2016-12-02T11:30:27.063Z,230
2016-12-02T11:31:27.068Z,220
2016-12-02T11:32:26.953Z,205
2016-12-02T11:33:27.275Z,195
2016-12-02T11:34:27.022Z,185
2016-12-02T11:35:27.166Z,175
2016-12-02T11:36:27.102Z,160
2016-12-02T11:37:27.109Z,150
2016-12-02T11:38:27.109Z,160
2016-12-02T11:39:27.073Z,180
2016-12-02T11:40:27.036Z,215
2016-12-02T11:41:27.062Z,275
2016-12-02T11:42:26.975Z,315
2016-12-02T11:43:27.027Z,340
2016-12-02T11:44:27.124Z,340
2016-12-02T11:45:27.093Z,325
2016-12-02T11:46:27.034Z,295
2016-12-02T11:47:26.982Z,250
2016-12-02T11:48:27.192Z,215
2016-12-02T11:49:27.045Z,205
2016-12-02T11:50:27.138Z,200
2016-12-02T11:51:27.124Z,200
2016-12-02T11:52:27.129Z,200
2016-12-02T11:53:27.186Z,215
2016-12-02T11:54:27.066Z,225
2016-12-02T11:55:26.923Z,235
2016-12-02T11:56:27.014Z,235
2016-12-02T11:57:26.996Z,240
2016-12-02T11:58:27.208Z,230
2016-12-02T11:59:27.107Z,220
2016-12-02T12:00:27.170Z,215
2016-12-02T12:01:27.037Z,215
2016-12-02T12:02:26.932Z,210
2016-12-02T12:03:27.174Z,200
2016-12-02T12:04:27.118Z,195
2016-12-02T12:05:28.412Z,195
2016-12-02T12:06:27.235Z,210
2016-12-02T12:07:27.114Z,235
2016-12-02T12:08:27.304Z,270
2016-12-02T12:09:27.276Z,310
2016-12-02T12:10:27.033Z,310
2016-12-02T12:11:27.243Z,295
2016-12-02T12:12:27.301Z,260
2016-12-02T12:13:27.275Z,220
2016-12-02T12:14:27.216Z,180
2016-12-02T12:15:27.164Z,155
2016-12-02T12:16:27.119Z,120
2016-12-02T12:17:27.218Z,95
2016-12-02T12:18:29.453Z,85
2016-12-02T12:19:27.109Z,80
2016-12-02T12:20:27.007Z,65
2016-12-02T12:21:27.205Z,70
2016-12-02T12:22:27.395Z,80
2016-12-02T12:23:27.220Z,75
2016-12-02T12:24:27.119Z,65
2016-12-02T12:25:27.200Z,70
2016-12-02T12:26:26.970Z,90
2016-12-02T12:27:27.231Z,90
2016-12-02T12:28:29.418Z,75
2016-12-02T12:29:27.231Z,65
2016-12-02T12:30:27.316Z,65
2016-12-02T12:31:27.236Z,65
2016-12-02T12:32:27.075Z,80
2016-12-02T12:33:27.655Z,100
2016-12-02T12:34:27.342Z,110
2016-12-02T12:35:27.183Z,115
2016-12-02T12:36:28.980Z,110
2016-12-02T12:37:27.171Z,110
2016-12-02T12:38:27.009Z,115
2016-12-02T12:39:27.456Z,115
2016-12-02T12:40:27.034Z,110
2016-12-02T12:41:28.017Z,110
2016-12-02T12:42:27.580Z,110
2016-12-02T12:43:27.048Z,115
2016-12-02T12:44:27.287Z,120
2016-12-02T12:45:27.191Z,130
2016-12-02T12:46:27.083Z,140
2016-12-02T12:47:27.192Z,150
2016-12-02T12:48:27.339Z,150
2016-12-02T12:49:27.786Z,155
2016-12-02T12:50:27.157Z,170
2016-12-02T12:51:27.399Z,175
2016-12-02T12:52:27.415Z,195
2016-12-02T12:53:27.198Z,210
2016-12-02T12:54:27.575Z,215
2016-12-02T12:55:27.330Z,220
2016-12-02T12:56:27.195Z,225
2016-12-02T12:57:27.220Z,225
2016-12-02T12:58:27.511Z,210
2016-12-02T12:59:27.607Z,190
2016-12-02T13:00:27.082Z,175
2016-12-02T13:01:27.342Z,175
2016-12-02T13:02:27.380Z,180
2016-12-02T13:03:27.279Z,180
2016-12-02T13:04:27.415Z,180
2016-12-02T13:05:27.663Z,185
2016-12-02T13:06:27.242Z,180
2016-12-02T13:07:27.279Z,190
2016-12-02T13:08:27.158Z,205
2016-12-02T13:09:27.613Z,230
2016-12-02T13:10:27.386Z,260
2016-12-02T13:11:28.077Z,300
2016-12-02T13:12:27.317Z,330
2016-12-02T13:13:27.357Z,345
2016-12-02T13:14:27.796Z,345
2016-12-02T13:15:28.567Z,345
2016-12-02T13:16:27.367Z,335
2016-12-02T13:17:27.157Z,300
2016-12-02T13:18:28.592Z,245
2016-12-02T13:19:27.445Z,220
2016-12-02T13:20:27.231Z,215
2016-12-02T13:21:27.066Z,220
2016-12-02T13:22:27.270Z,215
2016-12-02T13:23:28.296Z,195
2016-12-02T13:24:27.433Z,190
2016-12-02T13:25:27.447Z,195
2016-12-02T13:26:27.926Z,195
2016-12-02T13:27:27.284Z,200
2016-12-02T13:28:27.638Z,210
2016-12-02T13:29:27.383Z,205
2016-12-02T13:30:27.612Z,190
2016-12-02T13:35:45.761Z,185
2016-12-02T13:35:57.644Z,185
2016-12-02T13:36:57.757Z,175
2016-12-02T13:37:57.671Z,160
2016-12-02T13:38:57.470Z,150
2016-12-02T13:39:57.509Z,155
2016-12-02T13:40:57.992Z,150
2016-12-02T13:41:57.305Z,150
2016-12-02T13:47:15.795Z,175
2016-12-02T13:47:27.506Z,175
2016-12-02T13:48:27.666Z,185
2016-12-02T13:49:27.390Z,190
2016-12-02T13:50:27.569Z,190
2016-12-02T13:51:27.308Z,190
2016-12-02T13:52:27.210Z,185
2016-12-02T13:53:27.420Z,185
2016-12-02T13:54:27.517Z,180
2016-12-02T13:55:27.755Z,170
2016-12-02T13:56:27.580Z,160
2016-12-02T13:57:28.010Z,150
2016-12-02T13:58:27.522Z,140
2016-12-02T13:59:27.786Z,130
2016-12-02T14:00:27.650Z,125
2016-12-02T14:01:27.428Z,130
2016-12-02T14:02:27.688Z,130
2016-12-02T14:03:28.589Z,135
2016-12-02T14:04:27.337Z,140
2016-12-02T14:05:27.924Z,145
2016-12-02T14:06:27.689Z,145
2016-12-02T14:07:28.460Z,145
2016-12-02T14:08:28.241Z,140
2016-12-02T14:09:28.240Z,140
2016-12-02T14:10:27.688Z,135
2016-12-02T14:11:27.688Z,130
2016-12-02T14:12:27.611Z,125
2016-12-02T14:13:27.695Z,125
2016-12-02T14:14:27.444Z,130
2016-12-02T14:15:27.690Z,135
2016-12-02T14:16:30.303Z,135
2016-12-02T14:17:27.699Z,130
2016-12-02T14:18:27.504Z,130
2016-12-02T14:19:27.672Z,130
2016-12-02T14:20:27.464Z,125
2016-12-02T14:21:27.647Z,120
2016-12-02T14:22:27.674Z,125
2016-12-02T14:23:27.496Z,115
2016-12-02T14:24:27.458Z,110
2016-12-02T14:25:27.709Z,105
2016-12-02T14:26:27.595Z,105
2016-12-02T14:27:27.392Z,110
2016-12-02T14:28:27.708Z,115
2016-12-02T14:29:27.604Z,115
2016-12-02T14:30:27.522Z,110
2016-12-02T14:31:27.472Z,100
2016-12-02T14:32:27.452Z,90
2016-12-02T14:33:27.376Z,85
2016-12-02T14:34:27.447Z,80
2016-12-02T14:35:27.488Z,80
2016-12-02T14:36:27.501Z,75
2016-12-02T14:37:27.570Z,75
2016-12-02T14:38:27.444Z,70
2016-12-02T14:39:27.483Z,65